createdAt,value
2022-12-12T00:03:25.054Z,36.37
2022-12-12T00:08:32.983Z,35.50
2022-12-12T00:13:39.565Z,34.37
2022-12-12T00:18:41.666Z,33.20
2022-12-12T00:23:44.835Z,34.03
2022-12-12T00:28:49.628Z,32.13
2022-12-12T00:33:51.610Z,34.10
2022-12-12T00:38:54.235Z,34.50
2022-12-12T00:43:58.169Z,31.97
2022-12-12T00:49:02.700Z,35.47
2022-12-12T00:54:05.855Z,33.17
2022-12-12T00:59:12.169Z,35.77
2022-12-12T01:04:16.509Z,33.67
2022-12-12T01:09:18.292Z,33.37
2022-12-12T01:14:19.994Z,33.10
2022-12-12T01:19:24.267Z,34.17
2022-12-12T01:24:28.494Z,34.47
2022-12-12T01:29:30.138Z,35.03
2022-12-12T01:34:40.244Z,35.53
2022-12-12T01:39:44.168Z,34.23
2022-12-12T01:44:50.959Z,35.23
2022-12-12T01:50:00.310Z,35.93
2022-12-12T01:55:06.015Z,32.90
2022-12-12T02:00:11.256Z,33.83
2022-12-12T02:05:26.199Z,33.67
2022-12-12T02:10:35.683Z,36.43
2022-12-12T02:16:17.219Z,33.53
2022-12-12T02:21:41.313Z,33.37
2022-12-12T02:27:14.030Z,34.70
2022-12-12T02:32:24.664Z,35.20
2022-12-12T02:37:39.774Z,35.27
2022-12-12T02:42:48.744Z,33.53
2022-12-12T02:47:59.034Z,37.50
2022-12-12T02:53:05.157Z,35.23
2022-12-12T02:58:15.987Z,35.63
2022-12-12T03:04:05.725Z,35.43
2022-12-12T03:09:31.765Z,38.90
2022-12-12T03:14:39.120Z,37.53
2022-12-12T03:19:46.713Z,34.90
2022-12-12T03:25:14.504Z,40.17
2022-12-12T03:30:17.817Z,39.00
2022-12-12T03:35:34.661Z,40.27
2022-12-12T03:40:50.108Z,37.77
2022-12-12T03:45:57.954Z,39.13
2022-12-12T03:51:21.886Z,38.17
2022-12-12T03:56:40.452Z,37.77
2022-12-12T04:01:49.446Z,35.57
2022-12-12T04:07:26.924Z,37.77
2022-12-12T04:12:47.301Z,38.57
2022-12-12T04:18:26.019Z,37.80
2022-12-12T04:23:43.486Z,40.03
2022-12-12T04:28:57.276Z,39.77
2022-12-12T04:34:08.253Z,40.40
2022-12-12T04:39:14.337Z,38.73
2022-12-12T04:44:18.258Z,39.57
2022-12-12T04:49:27.851Z,39.80
2022-12-12T04:54:49.389Z,39.07
2022-12-12T04:59:51.378Z,38.03
2022-12-12T05:04:58.189Z,40.20
2022-12-12T05:10:02.571Z,39.87
2022-12-12T05:15:10.084Z,37.97
2022-12-12T05:20:12.696Z,40.43
2022-12-12T05:25:14.840Z,38.53
2022-12-12T05:30:30.607Z,40.47
2022-12-12T05:35:35.310Z,38.60
2022-12-12T05:40:44.251Z,37.87
2022-12-12T05:45:48.127Z,39.50
2022-12-12T05:50:49.926Z,38.03
2022-12-12T05:55:53.994Z,36.83
2022-12-12T06:01:03.034Z,38.17
2022-12-12T06:06:07.723Z,40.90
2022-12-12T06:11:09.579Z,38.17
2022-12-12T06:16:16.893Z,39.73
2022-12-12T06:21:19.602Z,40.03
2022-12-12T06:26:24.199Z,34.47
2022-12-12T06:31:26.218Z,36.53
2022-12-12T06:36:33.024Z,41.23
2022-12-12T06:41:39.992Z,36.17
2022-12-12T06:46:41.979Z,40.63
2022-12-12T06:51:48.858Z,36.00
2022-12-12T06:56:50.602Z,33.90
2022-12-12T07:01:56.038Z,34.57
2022-12-12T07:07:02.831Z,34.77
2022-12-12T07:12:05.110Z,37.00
2022-12-12T07:17:15.708Z,36.70
2022-12-12T07:22:22.345Z,34.90
2022-12-12T07:27:26.423Z,34.47
2022-12-12T07:32:30.462Z,32.30
2022-12-12T07:37:33.257Z,33.87
2022-12-12T07:42:37.540Z,35.27
2022-12-12T07:47:45.079Z,31.77
2022-12-12T07:52:46.937Z,35.00
2022-12-12T07:57:49.155Z,32.00
2022-12-12T08:02:53.828Z,36.33
2022-12-12T08:07:57.869Z,39.43
2022-12-12T08:12:59.890Z,34.33
2022-12-12T08:18:04.498Z,42.70
2022-12-12T08:23:11.819Z,37.33
2022-12-12T08:28:14.407Z,36.53
2022-12-12T08:33:22.193Z,34.33
2022-12-12T08:38:24.746Z,35.93
2022-12-12T08:43:29.436Z,33.57
2022-12-12T08:48:36.498Z,34.20
2022-12-12T08:53:39.812Z,33.97
2022-12-12T08:58:42.631Z,36.13
2022-12-12T09:03:50.309Z,34.17
2022-12-12T09:08:58.457Z,36.13
2022-12-12T09:14:03.468Z,38.40
2022-12-12T09:19:06.080Z,40.53
2022-12-12T09:24:09.411Z,37.93
2022-12-12T09:29:14.106Z,41.87
2022-12-12T09:34:16.336Z,41.77
2022-12-12T09:39:19.180Z,42.10
2022-12-12T09:44:23.390Z,42.40
2022-12-12T09:49:58.784Z,41.73
2022-12-12T09:55:37.475Z,43.23
2022-12-12T10:00:51.772Z,42.80
2022-12-12T10:06:35.975Z,43.07
2022-12-12T10:12:04.908Z,40.87
2022-12-12T10:17:19.560Z,41.63
2022-12-12T10:22:29.314Z,42.37
2022-12-12T10:27:31.779Z,42.10
2022-12-12T10:32:40.122Z,40.80
2022-12-12T10:37:59.535Z,37.43
2022-12-12T10:43:17.128Z,38.40
2022-12-12T10:48:21.542Z,36.10
2022-12-12T10:53:24.100Z,37.07
2022-12-12T10:58:27.229Z,35.13
2022-12-12T11:03:43.265Z,34.57
2022-12-12T11:09:17.955Z,33.20
2022-12-12T11:14:56.795Z,34.70
2022-12-12T11:20:07.790Z,31.17
2022-12-12T11:25:28.413Z,27.03
2022-12-12T11:30:35.045Z,26.60
2022-12-12T11:35:44.001Z,27.00
2022-12-12T11:41:01.345Z,26.93
2022-12-12T11:46:30.496Z,26.67
2022-12-12T11:51:46.325Z,29.80
2022-12-12T11:57:06.225Z,27.60
2022-12-12T12:02:44.641Z,28.63
2022-12-12T12:08:10.607Z,27.57
2022-12-12T12:13:34.016Z,29.10
2022-12-12T12:18:56.075Z,26.63
2022-12-12T12:24:35.815Z,27.70
2022-12-12T12:30:08.679Z,27.17
2022-12-12T12:35:13.552Z,28.47
2022-12-12T12:40:46.140Z,30.13
2022-12-12T12:46:00.538Z,28.80
2022-12-12T12:51:18.309Z,27.97
2022-12-12T12:56:32.268Z,30.87
2022-12-12T13:01:51.017Z,28.40
2022-12-12T13:06:58.924Z,28.97
2022-12-12T13:12:32.615Z,30.57
2022-12-12T13:17:49.141Z,29.77
2022-12-12T13:23:06.209Z,31.63
2022-12-12T13:28:13.723Z,30.43
2022-12-12T13:33:36.622Z,30.90
2022-12-12T13:38:40.735Z,30.77
2022-12-12T13:43:50.556Z,30.77
2022-12-12T13:49:09.395Z,30.53
2022-12-12T13:54:14.153Z,29.83
2022-12-12T13:59:27.679Z,29.33
2022-12-12T14:04:39.691Z,30.13
2022-12-12T14:09:48.665Z,31.13
2022-12-12T14:15:01.904Z,30.93
2022-12-12T14:20:10.530Z,30.30
2022-12-12T14:25:19.568Z,31.73
2022-12-12T14:30:40.321Z,30.30
2022-12-12T14:35:59.487Z,33.57
2022-12-12T14:41:04.803Z,34.13
2022-12-12T14:46:09.477Z,34.27
2022-12-12T14:51:29.305Z,31.23
2022-12-12T14:56:55.103Z,32.50
2022-12-12T15:02:07.946Z,33.90
2022-12-12T15:07:42.116Z,33.03
2022-12-12T15:12:44.576Z,32.67
2022-12-12T15:17:49.582Z,34.57
2022-12-12T15:23:19.124Z,33.83
2022-12-12T15:28:25.537Z,37.93
2022-12-12T15:33:30.573Z,36.13
2022-12-12T15:38:38.220Z,36.57
2022-12-12T15:43:44.337Z,35.37
2022-12-12T15:48:52.386Z,33.23
2022-12-12T15:54:01.811Z,34.90
2022-12-12T15:59:20.060Z,37.20
2022-12-12T16:04:40.230Z,36.33
2022-12-12T16:10:14.685Z,35.00
2022-12-12T16:15:19.244Z,39.17
2022-12-12T16:20:24.490Z,44.17
2022-12-12T16:25:35.506Z,40.63
2022-12-12T16:30:41.764Z,40.90
2022-12-12T16:35:44.135Z,40.97
2022-12-12T16:40:53.115Z,41.27
2022-12-12T16:46:10.442Z,41.47
2022-12-12T16:51:42.943Z,39.70
2022-12-12T16:56:50.762Z,40.17
2022-12-12T17:01:55.814Z,36.90
2022-12-12T17:06:57.670Z,39.17
2022-12-12T17:12:04.520Z,37.27
2022-12-12T17:17:07.292Z,38.97
2022-12-12T17:22:14.357Z,46.10
2022-12-12T17:27:18.002Z,40.70
2022-12-12T17:32:24.258Z,38.30
2022-12-12T17:37:28.489Z,43.37
2022-12-12T17:42:31.474Z,46.10
2022-12-12T17:47:35.896Z,46.47
2022-12-12T17:52:39.035Z,46.97
2022-12-12T17:57:45.993Z,45.77
2022-12-12T18:02:47.993Z,44.63
2022-12-12T18:07:49.799Z,43.57
2022-12-12T18:12:54.685Z,47.03
2022-12-12T18:17:57.509Z,47.33
2022-12-12T18:22:59.202Z,58.27
2022-12-12T18:28:00.864Z,58.53
2022-12-12T18:33:09.271Z,65.83
2022-12-12T18:38:13.611Z,80.37
2022-12-12T18:43:18.619Z,55.10
2022-12-12T18:48:20.504Z,57.10
2022-12-12T18:53:24.720Z,54.67
2022-12-12T18:58:26.755Z,55.77
2022-12-12T19:03:32.320Z,53.73
2022-12-12T19:08:34.539Z,55.57
2022-12-12T19:13:42.960Z,58.93
2022-12-12T19:18:49.906Z,53.77
2022-12-12T19:23:53.040Z,54.37
2022-12-12T19:29:01.147Z,56.60
2022-12-12T19:34:04.505Z,72.43
2022-12-12T19:39:08.192Z,65.97
2022-12-12T19:44:12.833Z,69.67
2022-12-12T19:49:16.214Z,58.23
2022-12-12T19:54:20.859Z,51.00
2022-12-12T19:59:25.613Z,43.87
2022-12-12T20:04:30.320Z,45.93
2022-12-12T20:09:34.827Z,45.40
2022-12-12T20:14:36.741Z,48.97
2022-12-12T20:19:38.531Z,41.90
2022-12-12T20:24:47.231Z,50.10
2022-12-12T20:29:51.324Z,62.07
2022-12-12T20:34:53.052Z,42.57
2022-12-12T20:39:55.017Z,45.17
2022-12-12T20:44:57.588Z,41.70
2022-12-12T20:50:00.969Z,48.83
2022-12-12T20:55:02.767Z,44.90
2022-12-12T21:00:06.446Z,48.30
2022-12-12T21:05:10.769Z,46.27
2022-12-12T21:10:13.124Z,63.45
2022-12-12T21:15:16.087Z,42.97
2022-12-12T21:20:21.537Z,45.23
2022-12-12T21:25:26.692Z,38.47
2022-12-12T21:30:30.945Z,42.17
2022-12-12T21:35:34.803Z,40.80
2022-12-12T21:40:39.010Z,46.10
2022-12-12T21:45:43.147Z,45.57
2022-12-12T21:50:44.880Z,42.50
2022-12-12T21:55:47.221Z,49.33
2022-12-12T22:00:49.864Z,41.67
2022-12-12T22:05:51.594Z,46.33
2022-12-12T22:10:55.472Z,44.47
2022-12-12T22:16:03.783Z,39.63
2022-12-12T22:21:11.685Z,40.80
2022-12-12T22:26:19.047Z,44.00
2022-12-12T22:31:31.047Z,41.40
2022-12-12T22:36:35.541Z,41.73
2022-12-12T22:41:42.113Z,42.83
2022-12-12T22:46:49.045Z,50.50
2022-12-12T22:51:53.649Z,45.50
2022-12-12T22:56:58.468Z,43.93
2022-12-12T23:02:00.230Z,42.60
2022-12-12T23:07:01.970Z,40.40
2022-12-12T23:12:04.366Z,40.20
2022-12-12T23:17:06.539Z,37.00
2022-12-12T23:22:11.477Z,41.73
2022-12-12T23:27:13.188Z,43.43
2022-12-12T23:32:14.943Z,38.97
2022-12-12T23:37:24.049Z,39.27
2022-12-12T23:42:30.573Z,39.60
2022-12-12T23:47:33.347Z,37.83
2022-12-12T23:52:37.576Z,40.03
2022-12-12T23:57:39.274Z,38.03
